sensor_id;sensor_type;location;lat;lon;timestamp;pressure;altitude;pressure_sealevel;temperature;humidity
52105;BME280;38103;42.776;23.112;2023-07-16T00:01:56;94236.72;;;21.40;100.00
52105;BME280;38103;42.776;23.112;2023-07-16T00:04:22;94239.50;;;21.49;100.00
52105;BME280;38103;42.776;23.112;2023-07-16T00:06:47;94234.94;;;21.50;100.00
52105;BME280;38103;42.776;23.112;2023-07-16T00:09:13;94239.31;;;21.60;100.00
52105;BME280;38103;42.776;23.112;2023-07-16T00:11:38;94230.47;;;21.59;100.00
52105;BME280;38103;42.776;23.112;2023-07-16T00:14:03;94232.75;;;21.66;100.00
52105;BME280;38103;42.776;23.112;2023-07-16T00:16:29;94235.94;;;21.68;100.00
52105;BME280;38103;42.776;23.112;2023-07-16T00:18:54;94237.94;;;21.76;100.00
52105;BME280;38103;42.776;23.112;2023-07-16T00:21:19;94227.28;;;21.71;100.00
52105;BME280;38103;42.776;23.112;2023-07-16T00:23:45;94238.53;;;21.73;100.00
52105;BME280;38103;42.776;23.112;2023-07-16T00:26:10;94197.09;;;21.46;100.00
52105;BME280;38103;42.776;23.112;2023-07-16T00:28:36;94231.78;;;21.62;100.00
52105;BME280;38103;42.776;23.112;2023-07-16T00:31:01;94236.34;;;21.61;100.00
52105;BME280;38103;42.776;23.112;2023-07-16T00:33:26;94224.56;;;21.43;100.00
52105;BME280;38103;42.776;23.112;2023-07-16T00:35:52;94163.03;;;20.94;100.00
52105;BME280;38103;42.776;23.112;2023-07-16T00:38:18;94227.22;;;21.15;100.00
52105;BME280;38103;42.776;23.112;2023-07-16T00:40:44;94235.16;;;21.06;100.00
52105;BME280;38103;42.776;23.112;2023-07-16T00:43:10;94199.91;;;20.74;100.00
52105;BME280;38103;42.776;23.112;2023-07-16T00:45:36;94242.13;;;20.87;100.00
52105;BME280;38103;42.776;23.112;2023-07-16T00:48:02;94229.56;;;20.83;100.00
52105;BME280;38103;42.776;23.112;2023-07-16T00:50:29;94237.34;;;20.84;100.00
52105;BME280;38103;42.776;23.112;2023-07-16T00:53:02;94235.31;;;20.76;100.00
52105;BME280;38103;42.776;23.112;2023-07-16T00:55:29;94230.91;;;20.66;100.00
52105;BME280;38103;42.776;23.112;2023-07-16T00:57:57;94228.22;;;20.47;100.00
52105;BME280;38103;42.776;23.112;2023-07-16T01:00:24;94235.84;;;20.39;100.00
52105;BME280;38103;42.776;23.112;2023-07-16T01:02:49;94236.16;;;20.38;100.00
52105;BME280;38103;42.776;23.112;2023-07-16T01:05:15;94212.56;;;20.35;100.00
52105;BME280;38103;42.776;23.112;2023-07-16T01:07:43;94161.06;;;20.08;100.00
52105;BME280;38103;42.776;23.112;2023-07-16T01:10:15;94228.38;;;20.56;100.00
52105;BME280;38103;42.776;23.112;2023-07-16T01:12:41;94227.88;;;20.53;100.00
52105;BME280;38103;42.776;23.112;2023-07-16T01:15:06;94235.41;;;20.51;100.00
52105;BME280;38103;42.776;23.112;2023-07-16T01:17:32;94228.38;;;20.36;100.00
52105;BME280;38103;42.776;23.112;2023-07-16T01:19:57;94230.53;;;20.34;100.00
52105;BME280;38103;42.776;23.112;2023-07-16T01:30:19;94217.00;;;20.01;100.00
52105;BME280;38103;42.776;23.112;2023-07-16T01:32:46;94220.47;;;20.01;100.00
52105;BME280;38103;42.776;23.112;2023-07-16T01:35:12;94203.72;;;19.90;100.00
52105;BME280;38103;42.776;23.112;2023-07-16T01:37:40;94223.06;;;19.87;100.00
52105;BME280;38103;42.776;23.112;2023-07-16T01:40:07;94226.84;;;19.86;100.00
52105;BME280;38103;42.776;23.112;2023-07-16T01:42:34;94214.81;;;19.83;100.00
52105;BME280;38103;42.776;23.112;2023-07-16T01:44:59;94223.22;;;19.76;100.00
52105;BME280;38103;42.776;23.112;2023-07-16T01:49:59;94226.44;;;19.73;100.00
52105;BME280;38103;42.776;23.112;2023-07-16T01:52:24;94203.63;;;19.51;100.00
52105;BME280;38103;42.776;23.112;2023-07-16T01:54:50;94227.06;;;19.65;100.00
52105;BME280;38103;42.776;23.112;2023-07-16T01:57:15;94224.44;;;19.60;100.00
52105;BME280;38103;42.776;23.112;2023-07-16T01:59:41;94232.50;;;19.60;100.00
52105;BME280;38103;42.776;23.112;2023-07-16T02:02:06;94222.19;;;19.48;100.00
52105;BME280;38103;42.776;23.112;2023-07-16T02:04:31;94223.66;;;19.35;100.00
52105;BME280;38103;42.776;23.112;2023-07-16T02:06:57;94229.00;;;19.35;100.00
52105;BME280;38103;42.776;23.112;2023-07-16T02:09:22;94224.72;;;19.34;100.00
52105;BME280;38103;42.776;23.112;2023-07-16T02:11:48;94224.31;;;19.21;100.00
52105;BME280;38103;42.776;23.112;2023-07-16T02:14:13;94238.06;;;19.09;100.00
52105;BME280;38103;42.776;23.112;2023-07-16T02:16:39;94216.47;;;18.95;100.00
52105;BME280;38103;42.776;23.112;2023-07-16T02:19:05;94230.53;;;19.11;100.00
52105;BME280;38103;42.776;23.112;2023-07-16T02:21:30;94223.78;;;19.19;100.00
52105;BME280;38103;42.776;23.112;2023-07-16T02:23:56;94214.66;;;19.15;100.00
52105;BME280;38103;42.776;23.112;2023-07-16T02:26:21;94227.00;;;19.16;100.00
52105;BME280;38103;42.776;23.112;2023-07-16T02:28:47;94234.06;;;19.06;100.00
52105;BME280;38103;42.776;23.112;2023-07-16T02:31:12;94231.97;;;18.98;100.00
52105;BME280;38103;42.776;23.112;2023-07-16T02:33:37;94237.59;;;19.02;100.00
52105;BME280;38103;42.776;23.112;2023-07-16T02:36:03;94237.75;;;19.10;100.00
52105;BME280;38103;42.776;23.112;2023-07-16T02:38:28;94243.22;;;19.00;100.00
52105;BME280;38103;42.776;23.112;2023-07-16T02:40:54;94243.50;;;18.98;100.00
52105;BME280;38103;42.776;23.112;2023-07-16T02:43:19;94235.50;;;18.93;100.00
52105;BME280;38103;42.776;23.112;2023-07-16T02:45:45;94239.72;;;18.99;100.00
52105;BME280;38103;42.776;23.112;2023-07-16T02:48:10;94218.16;;;18.85;100.00
52105;BME280;38103;42.776;23.112;2023-07-16T02:50:36;94236.31;;;18.94;100.00
52105;BME280;38103;42.776;23.112;2023-07-16T02:53:04;94241.75;;;18.83;100.00
52105;BME280;38103;42.776;23.112;2023-07-16T02:55:30;94245.97;;;18.90;100.00
52105;BME280;38103;42.776;23.112;2023-07-16T02:57:55;94242.13;;;19.01;100.00
52105;BME280;38103;42.776;23.112;2023-07-16T03:00:21;94244.81;;;19.01;100.00
52105;BME280;38103;42.776;23.112;2023-07-16T03:02:46;94244.06;;;18.95;100.00
52105;BME280;38103;42.776;23.112;2023-07-16T03:05:12;94249.97;;;18.92;100.00
52105;BME280;38103;42.776;23.112;2023-07-16T03:07:37;94247.06;;;18.89;100.00
52105;BME280;38103;42.776;23.112;2023-07-16T03:10:03;94247.59;;;18.91;100.00
52105;BME280;38103;42.776;23.112;2023-07-16T03:12:28;94243.34;;;18.84;100.00
52105;BME280;38103;42.776;23.112;2023-07-16T03:14:53;94246.78;;;18.90;100.00
52105;BME280;38103;42.776;23.112;2023-07-16T03:17:20;94244.88;;;18.96;100.00
52105;BME280;38103;42.776;23.112;2023-07-16T03:19:46;94247.03;;;18.94;100.00
52105;BME280;38103;42.776;23.112;2023-07-16T03:22:11;94255.66;;;18.85;100.00
52105;BME280;38103;42.776;23.112;2023-07-16T03:24:37;94226.78;;;18.77;100.00
52105;BME280;38103;42.776;23.112;2023-07-16T03:27:02;94257.41;;;19.01;100.00
52105;BME280;38103;42.776;23.112;2023-07-16T03:29:28;94251.16;;;19.10;100.00
52105;BME280;38103;42.776;23.112;2023-07-16T03:31:53;94254.34;;;19.13;100.00
52105;BME280;38103;42.776;23.112;2023-07-16T03:34:19;94237.81;;;19.05;100.00
52105;BME280;38103;42.776;23.112;2023-07-16T03:36:44;94249.50;;;19.20;100.00
52105;BME280;38103;42.776;23.112;2023-07-16T03:39:10;94254.75;;;19.30;100.00
52105;BME280;38103;42.776;23.112;2023-07-16T03:41:35;94255.75;;;19.40;100.00
52105;BME280;38103;42.776;23.112;2023-07-16T03:44:00;94251.28;;;19.60;100.00
52105;BME280;38103;42.776;23.112;2023-07-16T03:46:26;94251.16;;;19.70;100.00
52105;BME280;38103;42.776;23.112;2023-07-16T03:48:53;94258.91;;;19.96;100.00
52105;BME280;38103;42.776;23.112;2023-07-16T03:51:18;94262.31;;;20.27;100.00
52105;BME280;38103;42.776;23.112;2023-07-16T03:53:44;94216.47;;;20.23;100.00
52105;BME280;38103;42.776;23.112;2023-07-16T03:56:09;94263.94;;;20.67;100.00
52105;BME280;38103;42.776;23.112;2023-07-16T03:58:35;94260.88;;;20.73;100.00
52105;BME280;38103;42.776;23.112;2023-07-16T04:01:00;94267.03;;;21.13;100.00
52105;BME280;38103;42.776;23.112;2023-07-16T04:03:25;94269.16;;;21.30;100.00
52105;BME280;38103;42.776;23.112;2023-07-16T04:05:51;94275.41;;;21.59;100.00
52105;BME280;38103;42.776;23.112;2023-07-16T04:08:16;94264.38;;;21.88;100.00
52105;BME280;38103;42.776;23.112;2023-07-16T04:10:42;94268.44;;;22.14;100.00
52105;BME280;38103;42.776;23.112;2023-07-16T04:13:07;94271.63;;;22.30;100.00
52105;BME280;38103;42.776;23.112;2023-07-16T04:15:32;94266.38;;;22.62;100.00
52105;BME280;38103;42.776;23.112;2023-07-16T04:17:58;94262.16;;;22.84;100.00
52105;BME280;38103;42.776;23.112;2023-07-16T04:20:23;94273.28;;;22.92;100.00
52105;BME280;38103;42.776;23.112;2023-07-16T04:22:49;94273.41;;;23.09;100.00
52105;BME280;38103;42.776;23.112;2023-07-16T04:25:14;94278.94;;;23.04;100.00
52105;BME280;38103;42.776;23.112;2023-07-16T04:27:40;94273.28;;;23.38;100.00
52105;BME280;38103;42.776;23.112;2023-07-16T04:30:07;94275.38;;;23.18;100.00
52105;BME280;38103;42.776;23.112;2023-07-16T04:32:33;94277.22;;;23.31;100.00
52105;BME280;38103;42.776;23.112;2023-07-16T04:34:58;94277.44;;;23.44;100.00
52105;BME280;38103;42.776;23.112;2023-07-16T04:37:23;94283.91;;;23.66;100.00
52105;BME280;38103;42.776;23.112;2023-07-16T04:39:50;94288.50;;;23.33;100.00
52105;BME280;38103;42.776;23.112;2023-07-16T04:42:15;94293.28;;;23.60;100.00
52105;BME280;38103;42.776;23.112;2023-07-16T04:44:42;94295.03;;;23.96;100.00
52105;BME280;38103;42.776;23.112;2023-07-16T04:47:07;94288.84;;;24.05;100.00
52105;BME280;38103;42.776;23.112;2023-07-16T04:49:34;94236.28;;;22.83;100.00
52105;BME280;38103;42.776;23.112;2023-07-16T04:52:00;94296.47;;;23.39;100.00
52105;BME280;38103;42.776;23.112;2023-07-16T04:54:25;94298.81;;;23.08;100.00
52105;BME280;38103;42.776;23.112;2023-07-16T04:56:51;94290.94;;;22.98;100.00
52105;BME280;38103;42.776;23.112;2023-07-16T04:59:16;94293.53;;;23.03;100.00
52105;BME280;38103;42.776;23.112;2023-07-16T05:01:41;94292.97;;;23.15;100.00
52105;BME280;38103;42.776;23.112;2023-07-16T05:04:07;94297.16;;;23.21;100.00
52105;BME280;38103;42.776;23.112;2023-07-16T05:06:33;94276.84;;;22.78;100.00
52105;BME280;38103;42.776;23.112;2023-07-16T05:08:58;94292.34;;;22.72;100.00
52105;BME280;38103;42.776;23.112;2023-07-16T05:11:24;94286.94;;;22.58;100.00
52105;BME280;38103;42.776;23.112;2023-07-16T05:13:50;94298.81;;;23.08;100.00
52105;BME280;38103;42.776;23.112;2023-07-16T05:16:16;94275.00;;;23.33;100.00
52105;BME280;38103;42.776;23.112;2023-07-16T05:18:41;94288.63;;;23.51;100.00
52105;BME280;38103;42.776;23.112;2023-07-16T05:21:06;94299.38;;;23.74;100.00
52105;BME280;38103;42.776;23.112;2023-07-16T05:23:32;94304.19;;;23.54;100.00
52105;BME280;38103;42.776;23.112;2023-07-16T05:25:57;94307.53;;;23.92;100.00
52105;BME280;38103;42.776;23.112;2023-07-16T05:28:24;94309.63;;;23.95;100.00
52105;BME280;38103;42.776;23.112;2023-07-16T05:31:00;94305.63;;;23.61;100.00
52105;BME280;38103;42.776;23.112;2023-07-16T05:33:25;94309.16;;;23.61;100.00
52105;BME280;38103;42.776;23.112;2023-07-16T05:35:51;94307.88;;;23.99;100.00
52105;BME280;38103;42.776;23.112;2023-07-16T05:38:16;94309.63;;;24.27;100.00
52105;BME280;38103;42.776;23.112;2023-07-16T05:40:41;94307.13;;;24.66;100.00
52105;BME280;38103;42.776;23.112;2023-07-16T05:43:07;94313.50;;;24.88;100.00
52105;BME280;38103;42.776;23.112;2023-07-16T05:45:32;94312.41;;;24.81;100.00
52105;BME280;38103;42.776;23.112;2023-07-16T05:47:57;94314.63;;;24.78;100.00
52105;BME280;38103;42.776;23.112;2023-07-16T05:50:23;94316.38;;;24.65;100.00
52105;BME280;38103;42.776;23.112;2023-07-16T05:52:48;94313.19;;;24.99;100.00
52105;BME280;38103;42.776;23.112;2023-07-16T05:55:14;94317.47;;;25.00;100.00
52105;BME280;38103;42.776;23.112;2023-07-16T05:57:40;94273.09;;;24.65;100.00
52105;BME280;38103;42.776;23.112;2023-07-16T06:00:05;94329.88;;;24.92;100.00
52105;BME280;38103;42.776;23.112;2023-07-16T06:02:32;94316.06;;;25.29;100.00
52105;BME280;38103;42.776;23.112;2023-07-16T06:04:57;94322.91;;;25.44;100.00
52105;BME280;38103;42.776;23.112;2023-07-16T06:07:22;94324.03;;;25.35;100.00
52105;BME280;38103;42.776;23.112;2023-07-16T06:09:48;94317.34;;;25.05;100.00
52105;BME280;38103;42.776;23.112;2023-07-16T06:12:13;94320.53;;;25.43;100.00
52105;BME280;38103;42.776;23.112;2023-07-16T06:14:39;94319.94;;;25.85;100.00
52105;BME280;38103;42.776;23.112;2023-07-16T06:17:05;94327.47;;;25.80;100.00
52105;BME280;38103;42.776;23.112;2023-07-16T06:19:30;94269.69;;;25.58;100.00
52105;BME280;38103;42.776;23.112;2023-07-16T06:21:56;94325.13;;;26.08;93.98
52105;BME280;38103;42.776;23.112;2023-07-16T06:24:21;94324.16;;;25.74;86.59
52105;BME280;38103;42.776;23.112;2023-07-16T06:26:47;94322.22;;;26.22;87.51
52105;BME280;38103;42.776;23.112;2023-07-16T06:29:13;94272.09;;;26.29;81.03
52105;BME280;38103;42.776;23.112;2023-07-16T06:31:38;94324.28;;;26.56;78.71
52105;BME280;38103;42.776;23.112;2023-07-16T06:34:03;94315.25;;;26.43;79.01
52105;BME280;38103;42.776;23.112;2023-07-16T06:36:29;94322.75;;;26.37;81.08
52105;BME280;38103;42.776;23.112;2023-07-16T06:38:54;94323.31;;;26.82;77.43
52105;BME280;38103;42.776;23.112;2023-07-16T06:41:20;94315.97;;;26.61;77.41
52105;BME280;38103;42.776;23.112;2023-07-16T06:43:45;94322.22;;;26.53;76.51
52105;BME280;38103;42.776;23.112;2023-07-16T06:46:10;94315.47;;;26.29;76.02
52105;BME280;38103;42.776;23.112;2023-07-16T06:48:36;94314.09;;;26.53;78.16
52105;BME280;38103;42.776;23.112;2023-07-16T06:51:01;94310.16;;;26.72;75.44
52105;BME280;38103;42.776;23.112;2023-07-16T06:53:27;94322.88;;;26.80;76.47
52105;BME280;38103;42.776;23.112;2023-07-16T06:55:52;94314.19;;;27.08;72.22
52105;BME280;38103;42.776;23.112;2023-07-16T06:58:17;94308.84;;;27.21;74.05
52105;BME280;38103;42.776;23.112;2023-07-16T07:00:44;94309.59;;;27.43;71.87
52105;BME280;38103;42.776;23.112;2023-07-16T07:03:09;94311.66;;;27.25;71.51
52105;BME280;38103;42.776;23.112;2023-07-16T07:05:35;94308.13;;;26.60;74.87
52105;BME280;38103;42.776;23.112;2023-07-16T07:08:02;94289.63;;;26.83;72.59
52105;BME280;38103;42.776;23.112;2023-07-16T07:10:27;94305.38;;;27.11;76.53
52105;BME280;38103;42.776;23.112;2023-07-16T07:12:52;94301.47;;;27.55;72.08
52105;BME280;38103;42.776;23.112;2023-07-16T07:15:18;94308.16;;;27.24;71.55
52105;BME280;38103;42.776;23.112;2023-07-16T07:17:43;94304.47;;;26.64;73.18
52105;BME280;38103;42.776;23.112;2023-07-16T07:20:12;94303.59;;;26.73;73.30
52105;BME280;38103;42.776;23.112;2023-07-16T07:22:38;94303.25;;;26.96;70.76
52105;BME280;38103;42.776;23.112;2023-07-16T07:25:03;94306.47;;;27.53;72.64
52105;BME280;38103;42.776;23.112;2023-07-16T07:27:29;94302.94;;;27.87;69.74
52105;BME280;38103;42.776;23.112;2023-07-16T07:29:54;94304.31;;;27.93;69.15
52105;BME280;38103;42.776;23.112;2023-07-16T07:32:21;94300.72;;;28.14;69.54
52105;BME280;38103;42.776;23.112;2023-07-16T07:34:47;94302.72;;;28.42;66.52
52105;BME280;38103;42.776;23.112;2023-07-16T07:37:13;94298.84;;;28.69;68.36
52105;BME280;38103;42.776;23.112;2023-07-16T07:39:38;94302.28;;;28.53;65.99
52105;BME280;38103;42.776;23.112;2023-07-16T07:42:04;94308.19;;;28.55;63.41
52105;BME280;38103;42.776;23.112;2023-07-16T07:44:29;94295.13;;;28.73;64.16
52105;BME280;38103;42.776;23.112;2023-07-16T07:46:55;94306.94;;;28.40;63.54
52105;BME280;38103;42.776;23.112;2023-07-16T07:49:20;94300.91;;;27.96;67.37
52105;BME280;38103;42.776;23.112;2023-07-16T07:51:45;94299.00;;;28.47;67.36
52105;BME280;38103;42.776;23.112;2023-07-16T07:54:12;94296.38;;;28.51;65.60
52105;BME280;38103;42.776;23.112;2023-07-16T07:56:38;94302.50;;;28.22;66.50
52105;BME280;38103;42.776;23.112;2023-07-16T07:59:04;94296.00;;;28.77;66.58
52105;BME280;38103;42.776;23.112;2023-07-16T08:01:29;94295.63;;;28.92;65.75
52105;BME280;38103;42.776;23.112;2023-07-16T08:03:54;94296.13;;;28.81;63.00
52105;BME280;38103;42.776;23.112;2023-07-16T08:06:20;94295.13;;;28.48;63.12
52105;BME280;38103;42.776;23.112;2023-07-16T08:08:45;94293.19;;;28.61;62.57
52105;BME280;38103;42.776;23.112;2023-07-16T08:11:11;94297.28;;;28.42;66.93
52105;BME280;38103;42.776;23.112;2023-07-16T08:13:36;94300.31;;;28.66;67.67
52105;BME280;38103;42.776;23.112;2023-07-16T08:16:01;94298.75;;;29.06;64.21
52105;BME280;38103;42.776;23.112;2023-07-16T08:18:27;94298.41;;;28.66;64.67
52105;BME280;38103;42.776;23.112;2023-07-16T08:20:52;94300.66;;;28.77;63.99
52105;BME280;38103;42.776;23.112;2023-07-16T08:23:18;94300.63;;;28.89;68.63
52105;BME280;38103;42.776;23.112;2023-07-16T08:25:43;94309.53;;;29.15;66.86
52105;BME280;38103;42.776;23.112;2023-07-16T08:28:09;94306.28;;;28.84;63.66
52105;BME280;38103;42.776;23.112;2023-07-16T08:30:35;94295.13;;;29.02;64.98
52105;BME280;38103;42.776;23.112;2023-07-16T08:33:00;94305.00;;;29.19;63.65
52105;BME280;38103;42.776;23.112;2023-07-16T08:35:26;94295.47;;;28.59;66.09
52105;BME280;38103;42.776;23.112;2023-07-16T08:37:51;94304.00;;;28.99;64.32
52105;BME280;38103;42.776;23.112;2023-07-16T08:40:17;94294.84;;;28.91;63.55
52105;BME280;38103;42.776;23.112;2023-07-16T08:42:45;94301.28;;;28.99;65.58
52105;BME280;38103;42.776;23.112;2023-07-16T08:45:14;94296.53;;;28.96;66.47
52105;BME280;38103;42.776;23.112;2023-07-16T08:47:40;94300.13;;;29.13;65.59
52105;BME280;38103;42.776;23.112;2023-07-16T08:50:06;94295.69;;;28.66;65.81
52105;BME280;38103;42.776;23.112;2023-07-16T08:52:31;94293.91;;;28.45;68.39
52105;BME280;38103;42.776;23.112;2023-07-16T08:54:57;94287.69;;;28.99;68.66
52105;BME280;38103;42.776;23.112;2023-07-16T08:57:23;94288.72;;;29.23;62.51
52105;BME280;38103;42.776;23.112;2023-07-16T08:59:49;94291.75;;;29.34;66.09
52105;BME280;38103;42.776;23.112;2023-07-16T09:02:18;94300.44;;;28.70;66.91
52105;BME280;38103;42.776;23.112;2023-07-16T09:04:46;94289.41;;;28.91;68.45
52105;BME280;38103;42.776;23.112;2023-07-16T09:07:12;94283.72;;;28.55;68.76
52105;BME280;38103;42.776;23.112;2023-07-16T09:09:37;94283.00;;;28.58;67.04
52105;BME280;38103;42.776;23.112;2023-07-16T09:12:03;94279.09;;;28.84;68.27
52105;BME280;38103;42.776;23.112;2023-07-16T09:14:28;94286.31;;;28.93;67.03
52105;BME280;38103;42.776;23.112;2023-07-16T09:16:54;94276.59;;;28.79;68.68
52105;BME280;38103;42.776;23.112;2023-07-16T09:19:20;94285.06;;;28.49;68.46
52105;BME280;38103;42.776;23.112;2023-07-16T09:21:49;94274.41;;;28.06;69.77
52105;BME280;38103;42.776;23.112;2023-07-16T09:24:15;94267.16;;;28.22;69.17
52105;BME280;38103;42.776;23.112;2023-07-16T09:26:51;94276.47;;;28.47;70.74
52105;BME280;38103;42.776;23.112;2023-07-16T09:29:17;94278.81;;;28.73;68.28
52105;BME280;38103;42.776;23.112;2023-07-16T09:32:03;94274.28;;;29.06;67.50
52105;BME280;38103;42.776;23.112;2023-07-16T09:34:30;94275.81;;;29.20;66.12
52105;BME280;38103;42.776;23.112;2023-07-16T09:36:57;94279.53;;;29.28;67.41
52105;BME280;38103;42.776;23.112;2023-07-16T09:39:22;94237.84;;;28.82;68.28
52105;BME280;38103;42.776;23.112;2023-07-16T09:41:49;94276.94;;;28.90;67.01
52105;BME280;38103;42.776;23.112;2023-07-16T09:44:15;94258.84;;;29.10;66.13
52105;BME280;38103;42.776;23.112;2023-07-16T09:46:41;94271.41;;;29.15;66.19
52105;BME280;38103;42.776;23.112;2023-07-16T09:49:07;94271.22;;;29.37;67.65
52105;BME280;38103;42.776;23.112;2023-07-16T09:51:38;94268.09;;;29.67;65.49
52105;BME280;38103;42.776;23.112;2023-07-16T09:54:05;94271.28;;;29.85;63.31
52105;BME280;38103;42.776;23.112;2023-07-16T09:56:36;94270.13;;;29.70;65.60
52105;BME280;38103;42.776;23.112;2023-07-16T09:59:07;94264.06;;;29.61;67.20
52105;BME280;38103;42.776;23.112;2023-07-16T10:01:37;94268.63;;;29.28;62.91
52105;BME280;38103;42.776;23.112;2023-07-16T10:04:14;94268.84;;;29.35;63.33
52105;BME280;38103;42.776;23.112;2023-07-16T10:09:40;94259.31;;;29.00;64.13
52105;BME280;38103;42.776;23.112;2023-07-16T10:12:14;94255.94;;;28.91;63.70
52105;BME280;38103;42.776;23.112;2023-07-16T10:14:47;94254.16;;;28.82;62.49
52105;BME280;38103;42.776;23.112;2023-07-16T10:17:17;94254.84;;;29.08;65.76
52105;BME280;38103;42.776;23.112;2023-07-16T10:19:47;94249.69;;;29.31;66.48
52105;BME280;38103;42.776;23.112;2023-07-16T10:22:12;94244.66;;;29.33;62.73
52105;BME280;38103;42.776;23.112;2023-07-16T10:24:39;94242.94;;;29.58;64.33
52105;BME280;38103;42.776;23.112;2023-07-16T10:27:04;94245.97;;;29.69;63.24
52105;BME280;38103;42.776;23.112;2023-07-16T10:29:29;94246.59;;;29.78;61.38
52105;BME280;38103;42.776;23.112;2023-07-16T10:31:56;94236.72;;;30.06;63.65
52105;BME280;38103;42.776;23.112;2023-07-16T10:34:22;94239.16;;;30.27;62.88
52105;BME280;38103;42.776;23.112;2023-07-16T10:36:49;94243.38;;;30.41;57.52
52105;BME280;38103;42.776;23.112;2023-07-16T10:39:15;94244.66;;;30.31;58.19
52105;BME280;38103;42.776;23.112;2023-07-16T10:41:40;94196.38;;;29.95;57.47
52105;BME280;38103;42.776;23.112;2023-07-16T10:44:08;94242.94;;;30.39;58.99
52105;BME280;38103;42.776;23.112;2023-07-16T10:46:33;94247.97;;;30.56;59.57
52105;BME280;38103;42.776;23.112;2023-07-16T10:48:59;94224.78;;;30.47;55.62
52105;BME280;38103;42.776;23.112;2023-07-16T10:51:25;94174.41;;;29.88;57.76
52105;BME280;38103;42.776;23.112;2023-07-16T10:53:51;94244.50;;;30.23;61.20
52105;BME280;38103;42.776;23.112;2023-07-16T10:56:17;94236.25;;;30.36;59.50
52105;BME280;38103;42.776;23.112;2023-07-16T10:58:45;94230.34;;;30.34;59.41
52105;BME280;38103;42.776;23.112;2023-07-16T11:01:10;94233.59;;;30.23;58.47
52105;BME280;38103;42.776;23.112;2023-07-16T11:03:35;94194.91;;;30.18;60.16
52105;BME280;38103;42.776;23.112;2023-07-16T11:06:10;94203.25;;;30.41;54.36
52105;BME280;38103;42.776;23.112;2023-07-16T11:08:37;94224.81;;;30.66;54.46
52105;BME280;38103;42.776;23.112;2023-07-16T11:11:02;94226.03;;;30.69;58.00
52105;BME280;38103;42.776;23.112;2023-07-16T11:13:29;94224.88;;;30.50;55.04
52105;BME280;38103;42.776;23.112;2023-07-16T11:15:55;94231.69;;;30.40;54.72
52105;BME280;38103;42.776;23.112;2023-07-16T11:18:24;94214.34;;;30.69;58.53
52105;BME280;38103;42.776;23.112;2023-07-16T11:20:53;94219.22;;;30.99;55.60
52105;BME280;38103;42.776;23.112;2023-07-16T11:23:18;94209.03;;;31.16;58.29
52105;BME280;38103;42.776;23.112;2023-07-16T11:25:51;94189.63;;;30.81;52.38
52105;BME280;38103;42.776;23.112;2023-07-16T11:28:16;94209.75;;;31.13;56.66
52105;BME280;38103;42.776;23.112;2023-07-16T11:30:42;94199.78;;;31.24;51.65
52105;BME280;38103;42.776;23.112;2023-07-16T11:33:11;94173.91;;;30.74;50.68
52105;BME280;38103;42.776;23.112;2023-07-16T11:35:37;94142.91;;;30.43;50.30
52105;BME280;38103;42.776;23.112;2023-07-16T11:38:07;94209.16;;;30.83;50.67
52105;BME280;38103;42.776;23.112;2023-07-16T11:40:36;94201.56;;;30.93;52.36
52105;BME280;38103;42.776;23.112;2023-07-16T11:43:09;94206.44;;;30.63;51.87
52105;BME280;38103;42.776;23.112;2023-07-16T11:45:35;94161.63;;;30.44;49.74
52105;BME280;38103;42.776;23.112;2023-07-16T11:48:01;94197.38;;;30.79;48.18
52105;BME280;38103;42.776;23.112;2023-07-16T11:50:28;94203.56;;;30.76;48.65
52105;BME280;38103;42.776;23.112;2023-07-16T11:52:56;94203.84;;;31.10;53.63
52105;BME280;38103;42.776;23.112;2023-07-16T11:55:22;94198.06;;;31.36;51.86
52105;BME280;38103;42.776;23.112;2023-07-16T11:57:47;94196.75;;;31.29;45.05
52105;BME280;38103;42.776;23.112;2023-07-16T12:00:13;94192.63;;;31.39;46.28
52105;BME280;38103;42.776;23.112;2023-07-16T12:02:39;94191.53;;;31.64;48.88
52105;BME280;38103;42.776;23.112;2023-07-16T12:05:04;94191.69;;;31.51;46.17
52105;BME280;38103;42.776;23.112;2023-07-16T12:07:36;94195.09;;;31.68;45.99
52105;BME280;38103;42.776;23.112;2023-07-16T12:10:03;94189.00;;;31.78;46.95
52105;BME280;38103;42.776;23.112;2023-07-16T12:12:29;94194.06;;;31.76;46.07
52105;BME280;38103;42.776;23.112;2023-07-16T12:14:54;94177.75;;;31.56;46.98
52105;BME280;38103;42.776;23.112;2023-07-16T12:17:20;94187.44;;;31.77;46.47
52105;BME280;38103;42.776;23.112;2023-07-16T12:19:45;94188.22;;;31.78;47.35
52105;BME280;38103;42.776;23.112;2023-07-16T12:22:10;94188.59;;;31.53;47.05
52105;BME280;38103;42.776;23.112;2023-07-16T12:24:37;94184.03;;;31.61;46.97
52105;BME280;38103;42.776;23.112;2023-07-16T12:27:02;94181.25;;;31.57;46.67
52105;BME280;38103;42.776;23.112;2023-07-16T12:29:27;94177.59;;;31.49;46.45
52105;BME280;38103;42.776;23.112;2023-07-16T12:31:53;94179.06;;;31.43;49.39
52105;BME280;38103;42.776;23.112;2023-07-16T12:34:18;94181.47;;;31.48;44.72
52105;BME280;38103;42.776;23.112;2023-07-16T12:36:44;94178.06;;;31.31;44.86
52105;BME280;38103;42.776;23.112;2023-07-16T12:39:09;94176.88;;;31.52;46.19
52105;BME280;38103;42.776;23.112;2023-07-16T12:41:34;94178.97;;;31.39;45.01
52105;BME280;38103;42.776;23.112;2023-07-16T12:44:00;94173.88;;;31.14;44.57
52105;BME280;38103;42.776;23.112;2023-07-16T12:46:25;94174.78;;;31.22;45.96
52105;BME280;38103;42.776;23.112;2023-07-16T12:48:51;94173.41;;;31.32;46.77
52105;BME280;38103;42.776;23.112;2023-07-16T12:51:16;94176.00;;;31.48;43.81
52105;BME280;38103;42.776;23.112;2023-07-16T12:53:41;94175.75;;;31.53;45.31